createdAt,value
2023-01-15T00:04:26.590Z,99015.16
2023-01-15T00:09:29.389Z,99014.28
2023-01-15T00:14:33.979Z,99013.41
2023-01-15T00:19:36.874Z,99005.28
2023-01-15T00:24:53.618Z,99005.44
2023-01-15T00:29:57.883Z,99016.44
2023-01-15T00:35:00.711Z,99014.19
2023-01-15T00:40:04.180Z,99019.50
2023-01-15T00:45:11.222Z,99028.41
2023-01-15T00:50:16.261Z,99037.44
2023-01-15T00:55:19.077Z,99040.91
2023-01-15T01:00:23.574Z,99051.25
2023-01-15T01:05:26.404Z,99050.56
2023-01-15T01:10:29.349Z,99053.03
2023-01-15T01:15:36.023Z,99063.13
2023-01-15T01:20:39.245Z,99070.13
2023-01-15T01:25:42.022Z,99068.50
2023-01-15T01:30:46.333Z,99076.31
2023-01-15T01:35:49.918Z,99066.75
2023-01-15T01:40:52.675Z,99073.38
2023-01-15T01:45:57.718Z,99066.75
2023-01-15T01:51:05.939Z,99081.84
2023-01-15T01:56:09.881Z,99086.56
2023-01-15T02:01:15.507Z,99080.44
2023-01-15T02:06:18.931Z,99064.78
2023-01-15T02:11:24.412Z,99056.75
2023-01-15T02:16:36.585Z,99057.94
2023-01-15T02:21:51.782Z,99056.50
2023-01-15T02:27:13.180Z,99057.31
2023-01-15T02:32:24.961Z,99064.50
2023-01-15T02:37:31.265Z,99056.34
2023-01-15T02:42:38.420Z,99048.16
2023-01-15T02:47:44.823Z,99051.25
2023-01-15T02:52:53.055Z,99047.72
2023-01-15T02:58:04.263Z,99046.91
2023-01-15T03:03:14.241Z,99046.00
2023-01-15T03:08:17.155Z,99050.22
2023-01-15T03:13:30.180Z,99037.47
2023-01-15T03:18:38.325Z,99032.59
2023-01-15T03:23:48.576Z,99021.38
2023-01-15T03:28:53.888Z,99036.97
2023-01-15T03:33:56.868Z,99027.38
2023-01-15T03:39:00.982Z,99024.34
2023-01-15T03:44:30.050Z,99037.25
2023-01-15T03:49:43.589Z,99026.44
2023-01-15T03:55:08.841Z,99026.28
2023-01-15T04:00:19.913Z,99018.09
2023-01-15T04:05:29.620Z,99011.38
2023-01-15T04:10:33.477Z,99015.53
2023-01-15T04:15:39.967Z,99011.91
2023-01-15T04:20:43.092Z,98994.00
2023-01-15T04:25:46.710Z,98991.72
2023-01-15T04:30:51.344Z,98996.00
2023-01-15T04:35:54.139Z,98995.94
2023-01-15T04:41:14.433Z,98987.59
2023-01-15T04:46:22.138Z,99003.56
2023-01-15T04:51:25.119Z,99003.31
2023-01-15T04:56:27.971Z,99003.56
2023-01-15T05:01:32.314Z,99004.28
2023-01-15T05:06:35.565Z,98985.03
2023-01-15T05:11:39.451Z,98989.72
2023-01-15T05:16:43.690Z,98992.41
2023-01-15T05:21:46.734Z,98983.78
2023-01-15T05:26:49.829Z,98990.34
2023-01-15T05:31:54.119Z,98994.75
2023-01-15T05:36:57.159Z,98989.94
2023-01-15T05:42:02.487Z,98987.56
2023-01-15T05:47:07.753Z,98998.19
2023-01-15T05:52:10.572Z,98990.56
2023-01-15T05:57:14.146Z,98990.34
2023-01-15T06:02:18.404Z,98982.69
2023-01-15T06:07:21.329Z,98991.19
2023-01-15T06:12:24.192Z,98983.78
2023-01-15T06:17:28.433Z,98983.09
2023-01-15T06:22:31.275Z,98988.31
2023-01-15T06:27:34.237Z,98982.06
2023-01-15T06:32:38.491Z,98978.81
2023-01-15T06:37:41.417Z,98986.13
2023-01-15T06:43:02.014Z,98978.75
2023-01-15T06:48:07.917Z,98987.16
2023-01-15T06:53:10.779Z,98981.00
2023-01-15T06:58:13.702Z,98977.59
2023-01-15T07:03:18.029Z,98975.84
2023-01-15T07:08:20.762Z,98983.19
2023-01-15T07:13:23.555Z,98976.28
2023-01-15T07:18:27.984Z,98982.63
2023-01-15T07:23:30.788Z,98973.59
2023-01-15T07:28:33.678Z,98972.34
2023-01-15T07:33:37.896Z,98970.97
2023-01-15T07:38:40.669Z,98978.13
2023-01-15T07:44:12.795Z,98974.75
2023-01-15T07:49:34.570Z,98990.41
2023-01-15T07:54:37.697Z,98981.94
2023-01-15T07:59:40.691Z,98999.66
2023-01-15T08:04:47.943Z,98988.25
2023-01-15T08:09:50.744Z,98994.97
2023-01-15T08:15:10.733Z,98985.84
2023-01-15T08:20:17.226Z,99002.34
2023-01-15T08:25:22.671Z,98996.56
2023-01-15T08:30:26.491Z,98999.25
2023-01-15T08:35:30.905Z,98993.31
2023-01-15T08:40:33.799Z,98996.69
2023-01-15T08:45:36.638Z,98987.66
2023-01-15T08:50:40.846Z,98975.63
2023-01-15T08:55:44.824Z,98972.09
2023-01-15T09:00:48.579Z,98962.31
2023-01-15T09:05:52.915Z,98965.50
2023-01-15T09:10:58.968Z,98951.53
2023-01-15T09:16:03.232Z,98939.31
2023-01-15T09:21:07.738Z,98963.25
2023-01-15T09:26:27.533Z,98969.97
2023-01-15T09:31:31.311Z,98966.47
2023-01-15T09:36:36.499Z,98957.00
2023-01-15T09:42:08.130Z,98959.69
2023-01-15T09:47:15.650Z,98961.44
2023-01-15T09:52:27.071Z,98977.63
2023-01-15T09:57:32.067Z,98975.06
2023-01-15T10:02:41.992Z,98978.75
2023-01-15T10:07:57.173Z,98985.06
2023-01-15T10:13:07.635Z,98972.84
2023-01-15T10:18:16.842Z,98963.72
2023-01-15T10:23:43.281Z,98963.53
2023-01-15T10:29:10.932Z,98966.44
2023-01-15T10:35:05.144Z,98967.41
2023-01-15T10:40:29.765Z,98978.44
2023-01-15T10:45:35.748Z,98958.94
2023-01-15T10:50:39.572Z,98954.38
2023-01-15T10:55:47.755Z,98943.84
2023-01-15T11:00:56.153Z,98943.84
2023-01-15T11:05:58.958Z,98944.59
2023-01-15T11:11:17.210Z,98934.81
2023-01-15T11:16:39.586Z,98923.59
2023-01-15T11:21:44.027Z,98930.84
2023-01-15T11:26:51.743Z,98923.69
2023-01-15T11:31:54.629Z,98937.28
2023-01-15T11:37:04.938Z,98925.59
2023-01-15T11:42:43.654Z,98946.75
2023-01-15T11:48:10.192Z,98982.69
2023-01-15T11:53:18.939Z,98979.63
2023-01-15T11:58:24.962Z,98993.09
2023-01-15T12:03:32.060Z,98935.91
2023-01-15T12:08:50.212Z,98944.78
2023-01-15T12:14:04.468Z,98949.34
2023-01-15T12:19:13.897Z,98938.59
2023-01-15T12:24:31.893Z,98940.78
2023-01-15T12:29:43.757Z,98933.47
2023-01-15T12:34:52.944Z,98926.81
2023-01-15T12:40:03.487Z,98919.91
2023-01-15T12:45:16.933Z,98906.78
2023-01-15T12:50:30.658Z,98904.31
2023-01-15T12:55:38.726Z,98893.00
2023-01-15T13:00:45.465Z,98870.47
2023-01-15T13:05:51.715Z,98867.06
2023-01-15T13:10:54.502Z,98860.91
2023-01-15T13:16:09.404Z,98866.75
2023-01-15T13:21:14.745Z,98870.63
2023-01-15T13:26:33.667Z,98870.06
2023-01-15T13:31:51.000Z,98864.28
2023-01-15T13:36:56.458Z,98861.88
2023-01-15T13:42:18.255Z,98858.34
2023-01-15T13:47:26.572Z,98853.53
2023-01-15T13:52:32.119Z,98854.16
2023-01-15T13:57:37.596Z,98840.50
2023-01-15T14:02:53.341Z,98842.69
2023-01-15T14:07:56.299Z,98845.19
2023-01-15T14:13:30.680Z,98839.47
2023-01-15T14:19:01.665Z,98847.63
2023-01-15T14:24:37.100Z,98830.63
2023-01-15T14:30:07.318Z,98824.63
2023-01-15T14:35:15.299Z,98833.44
2023-01-15T14:40:24.845Z,98834.00
2023-01-15T14:45:30.158Z,98838.53
2023-01-15T14:50:39.381Z,98839.41
2023-01-15T14:55:48.821Z,98840.09
2023-01-15T15:00:55.893Z,98850.16
2023-01-15T15:06:01.117Z,98864.16
2023-01-15T15:11:27.770Z,98877.53
2023-01-15T15:16:32.761Z,98886.28
2023-01-15T15:21:40.169Z,98902.94
2023-01-15T15:26:43.063Z,98907.25
2023-01-15T15:31:49.355Z,98936.66
2023-01-15T15:36:53.980Z,98978.00
2023-01-15T15:42:17.795Z,98995.72
2023-01-15T15:47:40.213Z,98989.00
2023-01-15T15:52:46.271Z,98995.56
2023-01-15T15:57:54.250Z,99002.19
2023-01-15T16:02:57.271Z,99003.97
2023-01-15T16:08:18.793Z,99010.53
2023-01-15T16:13:26.223Z,99017.50
2023-01-15T16:18:32.618Z,99014.50
2023-01-15T16:23:36.789Z,99033.16
2023-01-15T16:28:44.756Z,99038.81
2023-01-15T16:33:48.438Z,99030.56
2023-01-15T16:38:54.062Z,99047.88
2023-01-15T16:43:59.194Z,99055.47
2023-01-15T16:49:21.048Z,99080.59
2023-01-15T16:54:47.598Z,99080.22
2023-01-15T16:59:57.547Z,99090.28
2023-01-15T17:05:00.453Z,99089.09
2023-01-15T17:10:07.401Z,99091.56
2023-01-15T17:15:36.729Z,99102.13
2023-01-15T17:20:39.526Z,99099.88
2023-01-15T17:25:43.635Z,99096.63
2023-01-15T17:30:48.413Z,99105.38
2023-01-15T17:35:53.059Z,99117.09
2023-01-15T17:41:00.357Z,99112.69
2023-01-15T17:46:03.422Z,99121.34
2023-01-15T17:51:10.759Z,99129.09
2023-01-15T17:56:32.691Z,99121.59
2023-01-15T18:01:57.060Z,99126.59
2023-01-15T18:07:01.564Z,99120.47
2023-01-15T18:12:07.078Z,99128.28
2023-01-15T18:17:11.525Z,99136.88
2023-01-15T18:22:15.636Z,99142.19
2023-01-15T18:27:19.804Z,99154.56
2023-01-15T18:32:22.635Z,99154.56
2023-01-15T18:37:25.577Z,99158.63
2023-01-15T18:42:49.589Z,99166.53
2023-01-15T18:47:52.361Z,99176.28
2023-01-15T18:52:55.491Z,99176.50
2023-01-15T18:57:59.931Z,99177.84
2023-01-15T19:03:03.199Z,99178.66
2023-01-15T19:08:06.078Z,99183.16
2023-01-15T19:13:10.175Z,99183.56
2023-01-15T19:18:30.545Z,99188.31
2023-01-15T19:23:33.366Z,99197.16
2023-01-15T19:28:37.642Z,99217.50
2023-01-15T19:33:40.614Z,99216.66
2023-01-15T19:38:43.513Z,99221.00
2023-01-15T19:44:05.440Z,99231.16
2023-01-15T19:49:33.352Z,99230.84
2023-01-15T19:54:58.963Z,99236.84
2023-01-15T20:00:03.344Z,99247.44
2023-01-15T20:05:09.682Z,99254.91
2023-01-15T20:10:14.921Z,99260.75
2023-01-15T20:15:19.350Z,99260.66
2023-01-15T20:20:22.298Z,99264.78
2023-01-15T20:25:26.100Z,99277.41
2023-01-15T20:30:30.547Z,99275.66
2023-01-15T20:35:33.585Z,99288.34
2023-01-15T20:40:36.614Z,99279.22
2023-01-15T20:45:41.745Z,99281.78
2023-01-15T20:51:00.557Z,99289.97
2023-01-15T20:56:05.322Z,99283.84
2023-01-15T21:01:11.022Z,99278.84
2023-01-15T21:06:14.018Z,99277.13
2023-01-15T21:11:18.333Z,99286.44
2023-01-15T21:16:23.280Z,99290.06
2023-01-15T21:21:26.157Z,99287.13
2023-01-15T21:26:30.923Z,99296.06
2023-01-15T21:31:35.381Z,99287.59
2023-01-15T21:36:38.362Z,99289.16
2023-01-15T21:41:59.200Z,99279.88
2023-01-15T21:47:05.239Z,99286.78
2023-01-15T21:52:10.205Z,99279.00
2023-01-15T21:57:13.882Z,99293.06
2023-01-15T22:02:21.789Z,99293.81
2023-01-15T22:07:24.777Z,99295.47
2023-01-15T22:12:27.579Z,99293.13
2023-01-15T22:17:31.816Z,99294.00
2023-01-15T22:22:36.505Z,99283.75
2023-01-15T22:27:40.861Z,99295.69
2023-01-15T22:32:45.231Z,99295.66
2023-01-15T22:37:48.211Z,99285.06
2023-01-15T22:42:50.973Z,99297.81
2023-01-15T22:47:55.040Z,99300.25
2023-01-15T22:52:57.782Z,99292.16
2023-01-15T22:58:00.547Z,99283.31
2023-01-15T23:03:05.955Z,99278.25
2023-01-15T23:08:08.880Z,99274.16
2023-01-15T23:13:11.894Z,99279.91
2023-01-15T23:18:16.043Z,99275.25
2023-01-15T23:23:18.899Z,99277.53
2023-01-15T23:28:21.717Z,99285.31
2023-01-15T23:33:25.933Z,99274.16
2023-01-15T23:38:29.480Z,99290.38
2023-01-15T23:43:49.503Z,99292.22
2023-01-15T23:48:53.619Z,99279.75
2023-01-15T23:53:56.501Z,99280.19
2023-01-15T23:59:00.106Z,99277.78
